Time;durP1;ratioP1;P1;durP2;ratioP2;P2;SDS_P1;SDS_P2;PMS_P1;PMS_P2;Temp;Humidity;BMP_temperature;BMP_pressure;BME280_temperature;BME280_humidity;BME280_pressure;Samples;Min_cycle;Max_cycle;Signal;HPM_P1;HPM_P2
2022/01/19 00:02:25;;;;;;;;;;;19.30;54.60;;;;;;5054055;28;1359;-69
2022/01/19 00:04:50;;;;;;;;;;;19.30;54.60;;;;;;5053786;28;1894;-69
2022/01/19 00:07:16;;;;;;;;;;;19.30;54.60;;;;;;5053286;28;1055;-68
2022/01/19 00:09:41;;;;;;;;;;;19.30;54.60;;;;;;5053417;28;1371;-69
2022/01/19 00:12:07;;;;;;;;;;;19.30;54.70;;;;;;5053600;28;1070;-69
2022/01/19 00:14:32;;;;;;;;;;;19.20;54.70;;;;;;5053580;28;1295;-69
2022/01/19 00:16:57;;;;;;;;;;;19.20;54.70;;;;;;5053510;28;1268;-69
2022/01/19 00:19:23;;;;;;;;;;;19.20;54.70;;;;;;5051604;28;1346;-69
2022/01/19 00:21:48;;;;;;;;;;;19.20;54.70;;;;;;5053447;28;1380;-68
2022/01/19 00:24:14;;;;;;;;;;;19.20;54.80;;;;;;5053569;28;1321;-68
2022/01/19 00:26:39;;;;;;;;;;;19.20;54.80;;;;;;5053770;28;1902;-68
2022/01/19 00:29:05;;;;;;;;;;;19.20;54.80;;;;;;5053045;28;1442;-68
2022/01/19 00:31:30;;;;;;;;;;;19.20;54.80;;;;;;5053331;28;1066;-68
2022/01/19 00:33:56;;;;;;;;;;;19.20;54.90;;;;;;5018016;28;1378;-68
2022/01/19 00:36:21;;;;;;;;;;;19.20;54.90;;;;;;5053655;28;1113;-68
2022/01/19 00:38:46;;;;;;;;;;;19.20;54.90;;;;;;5052603;28;1282;-68
2022/01/19 00:41:12;;;;;;;;;;;19.20;55.00;;;;;;5053677;28;1370;-69
2022/01/19 00:43:38;;;;;;;;;;;19.20;55.00;;;;;;5053045;28;1499;-68
2022/01/19 00:46:03;;;;;;;;;;;19.20;55.00;;;;;;5053514;28;1910;-68
2022/01/19 00:48:29;;;;;;;;;;;19.20;55.00;;;;;;5051493;28;1330;-68
2022/01/19 00:50:55;;;;;;;;;;;19.10;55.00;;;;;;5051932;28;1262;-68
2022/01/19 00:53:20;;;;;;;;;;;19.10;55.00;;;;;;5052807;28;1385;-68
2022/01/19 00:55:45;;;;;;;;;;;19.10;55.00;;;;;;5053397;28;1102;-68
2022/01/19 00:58:11;;;;;;;;;;;19.10;55.10;;;;;;5052322;28;1389;-68
2022/01/19 01:00:36;;;;;;;;;;;19.10;55.10;;;;;;5051781;28;1373;-69
2022/01/19 01:03:03;;;;;;;;;;;19.10;55.10;;;;;;5044092;28;1333;-68
2022/01/19 01:05:29;;;;;;;;;;;19.10;55.10;;;;;;5051907;28;1913;-68
2022/01/19 01:07:54;;;;;;;;;;;19.10;55.10;;;;;;5052082;28;1319;-69
2022/01/19 01:10:20;;;;;;;;;;;19.10;55.20;;;;;;5052803;28;1276;-68
2022/01/19 01:12:51;;;;;;;;;;;19.10;55.20;;;;;;5051897;28;1342;-68
2022/01/19 01:20:29;;;;;;;;;;;19.10;55.20;;;;;;5051527;28;1301;-68
2022/01/19 01:22:54;;;;;;;;;;;19.10;55.30;;;;;;5051627;28;1425;-68
2022/01/19 01:25:20;;;;;;;;;;;19.10;55.30;;;;;;5052540;28;1972;-68
2022/01/19 01:27:45;;;;;;;;;;;19.00;55.30;;;;;;5051944;28;1290;-69
2022/01/19 01:30:11;;;;;;;;;;;19.00;55.20;;;;;;5052395;28;1065;-68
2022/01/19 01:32:36;;;;;;;;;;;19.00;55.30;;;;;;5052473;28;1351;-69
2022/01/19 01:35:01;;;;;;;;;;;19.00;55.30;;;;;;5052450;28;1075;-68
2022/01/19 01:37:27;;;;;;;;;;;19.00;55.30;;;;;;5052249;28;1332;-68
2022/01/19 01:39:52;;;;;;;;;;;19.00;55.30;;;;;;5052371;28;1380;-68
2022/01/19 01:42:19;;;;;;;;;;;19.00;55.30;;;;;;5052781;28;1059;-69
2022/01/19 01:44:47;;;;;;;;;;;19.00;55.30;;;;;;5051043;28;1414;-68
2022/01/19 01:47:15;;;;;;;;;;;19.00;55.40;;;;;;5051760;28;1085;-68
2022/01/19 01:54:49;;;;;;;;;;;19.00;55.40;;;;;;5052112;28;1347;-68
2022/01/19 01:57:15;;;;;;;;;;;19.00;55.40;;;;;;5050919;28;1279;-68
2022/01/19 01:59:40;;;;;;;;;;;19.00;55.50;;;;;;5051919;28;1366;-69
2022/01/19 02:02:06;;;;;;;;;;;19.00;55.50;;;;;;5051505;28;1080;-68
2022/01/19 02:04:33;;;;;;;;;;;19.00;55.50;;;;;;5051880;28;1409;-68
2022/01/19 02:09:46;;;;;;;;;;;19.00;55.50;;;;;;5051876;28;1415;-68
2022/01/19 02:23:19;;;;;;;;;;;18.90;55.60;;;;;;5052314;28;1212;-69
2022/01/19 02:25:49;;;;;;;;;;;18.90;55.60;;;;;;5051298;28;1973;-69
2022/01/19 02:41:39;;;;;;;;;;;18.90;55.70;;;;;;5051745;28;1337;-69
2022/01/19 02:44:04;;;;;;;;;;;18.90;55.70;;;;;;5052124;28;1290;-68
2022/01/19 02:49:18;;;;;;;;;;;18.90;55.80;;;;;;5051008;28;1330;-68
2022/01/19 02:51:44;;;;;;;;;;;18.90;55.80;;;;;;5050616;28;1346;-68
2022/01/19 02:54:13;;;;;;;;;;;18.90;55.80;;;;;;5050406;28;1509;-69
2022/01/19 02:56:40;;;;;;;;;;;18.90;55.80;;;;;;5052047;28;1150;-68
2022/01/19 02:59:31;;;;;;;;;;;18.90;55.80;;;;;;5033944;28;1427;-68
2022/01/19 03:10:06;;;;;;;;;;;18.80;55.80;;;;;;5051418;28;1352;-68
2022/01/19 03:12:31;;;;;;;;;;;18.80;55.90;;;;;;5050270;28;1399;-69
2022/01/19 03:14:57;;;;;;;;;;;18.80;55.80;;;;;;5055322;28;1686;-69
2022/01/19 03:17:22;;;;;;;;;;;18.80;55.90;;;;;;5053399;28;1701;-68
2022/01/19 03:19:48;;;;;;;;;;;18.90;55.90;;;;;;5055200;28;1656;-68
2022/01/19 03:22:13;;;;;;;;;;;18.80;55.90;;;;;;5054800;28;1163;-68
2022/01/19 03:24:47;;;;;;;;;;;18.80;55.90;;;;;;5055020;28;1384;-68
2022/01/19 03:27:13;;;;;;;;;;;18.80;55.90;;;;;;5053542;28;1886;-68
2022/01/19 03:29:38;;;;;;;;;;;18.80;55.90;;;;;;5054714;28;1466;-68
2022/01/19 03:32:04;;;;;;;;;;;18.80;55.90;;;;;;5054352;28;1693;-68
2022/01/19 03:34:29;;;;;;;;;;;18.80;55.90;;;;;;5055099;28;1679;-68
2022/01/19 03:36:56;;;;;;;;;;;18.80;55.90;;;;;;5055256;28;1685;-68
2022/01/19 03:39:22;;;;;;;;;;;18.80;56.00;;;;;;5054609;28;1290;-68
2022/01/19 03:41:47;;;;;;;;;;;18.80;56.00;;;;;;5054936;28;1426;-68
2022/01/19 03:44:13;;;;;;;;;;;18.80;56.00;;;;;;5053878;28;1676;-70
2022/01/19 03:46:53;;;;;;;;;;;18.80;56.10;;;;;;5045114;28;1963;-69
2022/01/19 03:49:23;;;;;;;;;;;18.80;56.00;;;;;;5043341;28;1153;-69
2022/01/19 03:51:49;;;;;;;;;;;18.80;56.00;;;;;;5046456;28;1231;-67
2022/01/19 03:54:15;;;;;;;;;;;18.80;56.30;;;;;;5082624;22;2035;-69
2022/01/19 03:56:40;;;;;;;;;;;18.80;56.20;;;;;;5081550;28;1468;-70
2022/01/19 03:59:05;;;;;;;;;;;18.80;56.20;;;;;;5081695;28;1351;-70
2022/01/19 04:01:31;;;;;;;;;;;18.80;56.10;;;;;;5063964;28;1451;-70
2022/01/19 04:07:08;;;;;;;;;;;18.80;56.20;;;;;;5083078;28;1917;-70
2022/01/19 04:09:26;;;;;;;;;;;18.80;56.20;;;;;;5075976;28;1372;-70
2022/01/19 04:11:52;;;;;;;;;;;18.80;56.20;;;;;;5081051;28;1287;-69
2022/01/19 04:14:25;;;;;;;;;;;18.70;56.10;;;;;;5085392;28;1282;-70
2022/01/19 04:17:11;;;;;;;;;;;18.80;56.20;;;;;;5082559;28;1382;-71
2022/01/19 04:22:04;;;;;;;;;;;18.80;56.20;;;;;;5080513;28;1172;-70
2022/01/19 04:24:30;;;;;;;;;;;18.80;56.20;;;;;;5084338;28;1283;-69
2022/01/19 04:27:24;;;;;;;;;;;18.80;56.30;;;;;;5081560;28;1902;-66
2022/01/19 04:29:46;;;;;;;;;;;18.70;56.20;;;;;;5083616;28;1216;-69
2022/01/19 04:32:16;;;;;;;;;;;18.70;56.20;;;;;;5078932;28;1418;-67
2022/01/19 04:34:43;;;;;;;;;;;18.70;56.20;;;;;;5083486;28;1262;-67
2022/01/19 04:37:27;;;;;;;;;;;18.70;56.20;;;;;;5079633;28;1213;-68
2022/01/19 04:46:02;;;;;;;;;;;18.70;56.30;;;;;;5081450;28;1965;-67
2022/01/19 05:02:15;;;;;;;;;;;18.70;56.30;;;;;;5061335;28;1201;-67
2022/01/19 05:04:49;;;;;;;;;;;18.70;56.30;;;;;;5072356;28;1671;-68
2022/01/19 05:07:27;;;;;;;;;;;18.70;56.40;;;;;;5072386;28;1901;-66
2022/01/19 05:15:09;;;;;;;;;;;18.80;56.30;;;;;;5072376;28;1402;-68
2022/01/19 05:17:36;;;;;;;;;;;18.80;56.20;;;;;;5072116;28;1436;-68
2022/01/19 05:20:08;;;;;;;;;;;19.00;56.20;;;;;;5072172;28;1594;-68
2022/01/19 05:22:33;;;;;;;;;;;19.00;56.20;;;;;;5050170;28;1410;-67
2022/01/19 05:24:59;;;;;;;;;;;19.20;56.10;;;;;;5064185;28;1890;-69
2022/01/19 05:27:24;;;;;;;;;;;19.30;55.80;;;;;;5071847;28;1637;-68
2022/01/19 05:29:50;;;;;;;;;;;19.40;55.50;;;;;;5060623;28;1426;-68
2022/01/19 05:32:15;;;;;;;;;;;19.60;55.20;;;;;;5072568;28;1727;-69
2022/01/19 05:34:41;;;;;;;;;;;19.70;54.90;;;;;;5073233;28;1376;-68
2022/01/19 05:37:06;;;;;;;;;;;19.80;54.60;;;;;;5053466;28;1635;-72
2022/01/19 05:39:31;;;;;;;;;;;19.90;54.30;;;;;;5051879;28;1635;-70
2022/01/19 05:41:57;;;;;;;;;;;20.00;54.10;;;;;;5052763;28;1688;-70
2022/01/19 05:44:22;;;;;;;;;;;20.20;53.80;;;;;;5052839;28;1399;-70
2022/01/19 05:46:48;;;;;;;;;;;20.30;53.70;;;;;;5053201;28;2012;-69
2022/01/19 05:49:13;;;;;;;;;;;20.30;53.40;;;;;;5051671;28;1590;-68
2022/01/19 05:51:39;;;;;;;;;;;20.40;53.10;;;;;;5053065;28;1405;-68
2022/01/19 05:54:04;;;;;;;;;;;20.50;53.00;;;;;;5051797;28;1341;-68
2022/01/19 05:56:30;;;;;;;;;;;20.60;52.80;;;;;;5053041;28;1567;-68
2022/01/19 05:58:55;;;;;;;;;;;20.60;52.60;;;;;;5052550;28;1679;-68
2022/01/19 06:01:20;;;;;;;;;;;20.70;52.50;;;;;;5052837;28;1421;-68
2022/01/19 06:03:46;;;;;;;;;;;20.80;52.40;;;;;;5052923;28;1665;-68
2022/01/19 06:06:11;;;;;;;;;;;20.80;52.20;;;;;;5052926;28;1910;-68
2022/01/19 06:08:44;;;;;;;;;;;20.90;52.10;;;;;;5062696;28;1587;-68
2022/01/19 06:11:10;;;;;;;;;;;20.90;52.00;;;;;;5052629;28;1444;-68
2022/01/19 06:13:35;;;;;;;;;;;21.00;51.90;;;;;;5051395;28;1639;-68
2022/01/19 06:16:01;;;;;;;;;;;21.00;51.80;;;;;;5052843;28;1709;-68
2022/01/19 06:18:26;;;;;;;;;;;21.00;51.80;;;;;;5051323;28;1610;-67
2022/01/19 06:20:52;;;;;;;;;;;21.10;51.80;;;;;;5052734;28;1721;-68
2022/01/19 06:23:17;;;;;;;;;;;21.10;51.70;;;;;;5052818;28;1288;-68
2022/01/19 06:25:43;;;;;;;;;;;21.10;51.60;;;;;;5052601;28;1902;-68
2022/01/19 06:28:08;;;;;;;;;;;21.20;51.60;;;;;;5062030;28;1435;-68
2022/01/19 06:30:34;;;;;;;;;;;21.20;51.50;;;;;;5072242;28;1662;-68
2022/01/19 06:32:59;;;;;;;;;;;21.20;51.50;;;;;;5072713;28;1367;-68
2022/01/19 06:35:24;;;;;;;;;;;21.20;51.40;;;;;;5067645;28;1709;-68
2022/01/19 06:37:50;;;;;;;;;;;21.30;52.00;;;;;;5052630;28;1385;-68
2022/01/19 06:40:16;;;;;;;;;;;21.30;51.40;;;;;;5052649;28;1492;-67
2022/01/19 06:42:42;;;;;;;;;;;21.30;51.40;;;;;;5051440;28;1694;-68
2022/01/19 06:45:07;;;;;;;;;;;21.30;51.40;;;;;;5051116;28;1894;-68
2022/01/19 06:47:33;;;;;;;;;;;21.30;51.40;;;;;;5052576;28;1386;-68
2022/01/19 06:49:59;;;;;;;;;;;21.30;51.40;;;;;;5056311;28;1708;-68
2022/01/19 06:52:24;;;;;;;;;;;21.30;51.40;;;;;;5056268;28;1641;-68
2022/01/19 06:54:49;;;;;;;;;;;21.30;51.50;;;;;;5056246;28;1717;-68
2022/01/19 06:57:15;;;;;;;;;;;21.30;51.50;;;;;;5055877;28;1681;-68
2022/01/19 06:59:40;;;;;;;;;;;21.30;51.50;;;;;;5054782;28;1598;-68
2022/01/19 07:02:06;;;;;;;;;;;21.30;51.50;;;;;;5054920;28;1684;-68
2022/01/19 07:04:31;;;;;;;;;;;21.30;51.60;;;;;;5056049;28;1480;-68
2022/01/19 07:06:57;;;;;;;;;;;21.30;51.60;;;;;;5056028;28;1902;-69
2022/01/19 07:09:22;;;;;;;;;;;21.30;51.60;;;;;;5055547;28;1456;-69
2022/01/19 07:11:48;;;;;;;;;;;21.30;51.60;;;;;;5055734;28;1565;-69
2022/01/19 07:14:13;;;;;;;;;;;21.30;51.60;;;;;;5055599;28;1607;-68
2022/01/19 07:16:39;;;;;;;;;;;21.30;52.20;;;;;;5055869;28;1353;-69
2022/01/19 07:19:04;;;;;;;;;;;21.20;51.60;;;;;;5055437;28;1739;-69
2022/01/19 07:21:30;;;;;;;;;;;21.20;51.60;;;;;;5054561;28;1607;-69
2022/01/19 07:23:55;;;;;;;;;;;21.20;51.60;;;;;;5054462;28;1931;-68
2022/01/19 07:26:21;;;;;;;;;;;21.20;51.60;;;;;;5055393;28;1961;-69
2022/01/19 07:28:46;;;;;;;;;;;21.20;51.70;;;;;;5066391;28;1631;-69
2022/01/19 07:31:12;;;;;;;;;;;21.10;51.70;;;;;;5064901;28;1569;-69
2022/01/19 07:33:37;;;;;;;;;;;21.10;51.80;;;;;;5075419;28;1730;-69
2022/01/19 07:36:02;;;;;;;;;;;21.10;51.80;;;;;;5075543;28;730;-68
2022/01/19 07:38:28;;;;;;;;;;;21.10;51.90;;;;;;5075525;28;1554;-68
2022/01/19 07:40:54;;;;;;;;;;;21.10;51.90;;;;;;5075334;28;1570;-68
2022/01/19 07:43:19;;;;;;;;;;;21.00;52.00;;;;;;5073904;28;1681;-68
2022/01/19 07:45:44;;;;;;;;;;;21.00;52.00;;;;;;5075279;28;1977;-68
2022/01/19 07:48:10;;;;;;;;;;;21.00;52.10;;;;;;5073792;28;1552;-67
2022/01/19 07:50:36;;;;;;;;;;;21.00;52.20;;;;;;5073870;28;1698;-68
2022/01/19 07:53:01;;;;;;;;;;;21.00;52.20;;;;;;5075158;28;1354;-68
2022/01/19 07:55:27;;;;;;;;;;;20.90;52.30;;;;;;5074844;28;1379;-69
2022/01/19 07:57:52;;;;;;;;;;;20.90;52.30;;;;;;5071369;28;2233;-69
2022/01/19 08:00:18;;;;;;;;;;;20.90;52.30;;;;;;5072330;28;1939;-68
2022/01/19 08:02:44;;;;;;;;;;;20.90;52.40;;;;;;5073576;28;1659;-67
2022/01/19 08:05:09;;;;;;;;;;;20.90;52.40;;;;;;5068480;28;1969;-69
2022/01/19 08:07:35;;;;;;;;;;;20.90;52.50;;;;;;5058024;28;1599;-68
2022/01/19 08:10:04;;;;;;;;;;;20.80;52.50;;;;;;5065288;28;2295;-68
2022/01/19 08:12:30;;;;;;;;;;;20.80;52.50;;;;;;5070785;28;1306;-69
2022/01/19 08:14:58;;;;;;;;;;;20.80;52.60;;;;;;5072874;28;1644;-68
2022/01/19 08:17:23;;;;;;;;;;;20.80;52.60;;;;;;5066811;28;1502;-69
2022/01/19 08:19:49;;;;;;;;;;;20.80;52.60;;;;;;5053350;28;1437;-68
2022/01/19 08:22:14;;;;;;;;;;;20.80;52.70;;;;;;5054736;28;1359;-68
2022/01/19 08:24:40;;;;;;;;;;;20.80;52.70;;;;;;5054322;28;1724;-69
2022/01/19 08:27:05;;;;;;;;;;;20.70;52.70;;;;;;5055313;28;1939;-69
2022/01/19 08:29:31;;;;;;;;;;;20.70;52.70;;;;;;5073803;28;1697;-69
2022/01/19 08:31:56;;;;;;;;;;;20.70;52.80;;;;;;5066459;28;1453;-69
2022/01/19 08:34:22;;;;;;;;;;;20.70;52.80;;;;;;5072826;28;1680;-69
2022/01/19 08:36:47;;;;;;;;;;;20.70;52.80;;;;;;5057810;28;1551;-69
2022/01/19 08:39:12;;;;;;;;;;;20.70;52.90;;;;;;5052774;28;1690;-69
2022/01/19 08:41:38;;;;;;;;;;;20.60;52.80;;;;;;5054137;28;1519;-69
2022/01/19 08:44:03;;;;;;;;;;;20.60;52.90;;;;;;5053164;28;1576;-68
2022/01/19 08:46:29;;;;;;;;;;;20.60;53.50;;;;;;5054182;28;1906;-68
2022/01/19 08:48:54;;;;;;;;;;;20.60;52.90;;;;;;5053799;28;1641;-68
2022/01/19 08:51:20;;;;;;;;;;;20.60;52.90;;;;;;5054032;28;1702;-69
2022/01/19 08:53:45;;;;;;;;;;;20.60;52.90;;;;;;5053703;28;1709;-69
2022/01/19 08:56:10;;;;;;;;;;;20.60;53.00;;;;;;5064582;28;1647;-68
2022/01/19 08:58:36;;;;;;;;;;;20.60;53.00;;;;;;5061402;28;1606;-67
2022/01/19 09:01:01;;;;;;;;;;;20.60;53.00;;;;;;5073649;28;1433;-68
2022/01/19 09:03:28;;;;;;;;;;;20.60;53.00;;;;;;5073712;28;1583;-68
2022/01/19 09:05:53;;;;;;;;;;;20.60;53.10;;;;;;5073587;28;1965;-68
2022/01/19 09:08:19;;;;;;;;;;;20.60;53.10;;;;;;5073358;28;1619;-68
2022/01/19 09:10:47;;;;;;;;;;;20.50;53.10;;;;;;5073555;28;1424;-67
2022/01/19 09:13:12;;;;;;;;;;;20.60;53.10;;;;;;5073943;28;1666;-67
2022/01/19 09:15:38;;;;;;;;;;;20.60;53.10;;;;;;5072360;28;1341;-67
2022/01/19 09:18:03;;;;;;;;;;;20.60;53.00;;;;;;5073327;28;1358;-67
2022/01/19 09:20:29;;;;;;;;;;;20.60;53.00;;;;;;5073076;28;1643;-67
2022/01/19 09:22:54;;;;;;;;;;;20.60;52.90;;;;;;5064439;28;1582;-67
2022/01/19 09:25:20;;;;;;;;;;;20.60;52.80;;;;;;5067317;28;1886;-67
2022/01/19 09:27:45;;;;;;;;;;;20.70;52.80;;;;;;5071867;28;1402;-67
2022/01/19 09:30:14;;;;;;;;;;;20.70;52.70;;;;;;5058551;28;1241;-68
2022/01/19 09:32:39;;;;;;;;;;;20.70;52.70;;;;;;5072118;28;1672;-67
2022/01/19 09:35:08;;;;;;;;;;;20.80;52.60;;;;;;5070855;28;1434;-69
2022/01/19 09:37:34;;;;;;;;;;;20.80;52.60;;;;;;5053021;28;1605;-69
2022/01/19 09:39:59;;;;;;;;;;;20.80;52.50;;;;;;5054554;28;1416;-68
2022/01/19 09:42:25;;;;;;;;;;;20.80;52.50;;;;;;5071519;28;1594;-69
2022/01/19 09:44:52;;;;;;;;;;;20.80;52.40;;;;;;5069149;28;1520;-67
2022/01/19 09:47:18;;;;;;;;;;;20.90;52.40;;;;;;5052971;28;1922;-69
2022/01/19 09:49:44;;;;;;;;;;;20.90;52.40;;;;;;5055258;28;1306;-69
2022/01/19 09:52:09;;;;;;;;;;;20.90;52.40;;;;;;5052946;28;1736;-69
2022/01/19 09:54:35;;;;;;;;;;;20.90;52.40;;;;;;5061800;22;2373;-72
2022/01/19 09:57:00;;;;;;;;;;;20.90;52.40;;;;;;5050966;28;1032;-72
2022/01/19 09:59:26;;;;;;;;;;;20.90;52.40;;;;;;5051620;28;1709;-73
2022/01/19 10:01:53;;;;;;;;;;;20.80;52.40;;;;;;5041449;28;1381;-72
2022/01/19 10:04:18;;;;;;;;;;;20.80;52.40;;;;;;5039477;28;1373;-74
2022/01/19 10:06:44;;;;;;;;;;;20.80;52.40;;;;;;5022244;28;1918;-70
2022/01/19 10:09:09;;;;;;;;;;;20.80;52.40;;;;;;5021917;28;1371;-72
2022/01/19 10:17:04;;;;;;;;;;;20.70;49.20;;;;;;5032254;28;1197;-69
2022/01/19 10:19:33;;;;;;;;;;;20.70;49.00;;;;;;5032610;28;1114;-71
2022/01/19 10:21:59;;;;;;;;;;;20.60;48.60;;;;;;5033531;28;1729;-69
2022/01/19 10:24:46;;;;;;;;;;;20.60;48.70;;;;;;5034121;28;1658;-71
2022/01/19 10:27:18;;;;;;;;;;;20.50;48.40;;;;;;5021441;28;1898;-70
2022/01/19 10:29:45;;;;;;;;;;;20.50;47.00;;;;;;5036531;28;1478;-69
2022/01/19 10:32:11;;;;;;;;;;;20.40;46.20;;;;;;5036750;28;1727;-70
2022/01/19 10:34:36;;;;;;;;;;;20.30;46.10;;;;;;5035264;28;1357;-69
2022/01/19 10:37:03;;;;;;;;;;;20.30;45.70;;;;;;5036499;28;1704;-68
2022/01/19 10:39:38;;;;;;;;;;;20.20;44.20;;;;;;5036340;28;1364;-69
2022/01/19 10:42:15;;;;;;;;;;;20.10;45.00;;;;;;5036486;28;2243;-69
2022/01/19 10:44:42;;;;;;;;;;;20.10;45.30;;;;;;5035391;28;1373;-69
2022/01/19 10:47:07;;;;;;;;;;;20.00;45.20;;;;;;5032942;28;1932;-68
2022/01/19 10:49:46;;;;;;;;;;;20.00;45.10;;;;;;5034365;28;1495;-70
2022/01/19 10:52:23;;;;;;;;;;;20.00;44.50;;;;;;5026136;28;1543;-69
2022/01/19 10:54:49;;;;;;;;;;;20.00;44.10;;;;;;5032905;28;1455;-69
2022/01/19 10:57:14;;;;;;;;;;;19.90;44.00;;;;;;5034413;28;1705;-70
2022/01/19 10:59:40;;;;;;;;;;;19.90;43.20;;;;;;5034927;28;1427;-70
2022/01/19 11:02:05;;;;;;;;;;;19.90;43.20;;;;;;5015471;28;1373;-70
2022/01/19 11:04:34;;;;;;;;;;;19.80;42.90;;;;;;5020785;28;1874;-72
2022/01/19 11:07:03;;;;;;;;;;;19.80;42.80;;;;;;5017967;28;1906;-72
2022/01/19 11:09:29;;;;;;;;;;;19.70;41.70;;;;;;5035800;28;1442;-70
2022/01/19 11:12:08;;;;;;;;;;;19.70;41.60;;;;;;5035967;28;1424;-71
2022/01/19 11:14:37;;;;;;;;;;;19.70;42.50;;;;;;5036418;28;1347;-71
2022/01/19 11:17:03;;;;;;;;;;;19.60;42.50;;;;;;5034595;28;1387;-72
2022/01/19 11:19:28;;;;;;;;;;;19.70;43.00;;;;;;5035915;28;1738;-70
2022/01/19 11:21:56;;;;;;;;;;;19.70;43.60;;;;;;5034405;28;1605;-71
2022/01/19 11:24:25;;;;;;;;;;;19.70;44.20;;;;;;5034649;28;1217;-72
2022/01/19 11:26:50;;;;;;;;;;;19.70;44.50;;;;;;5034501;28;1922;-73
2022/01/19 11:29:18;;;;;;;;;;;19.70;44.80;;;;;;5034102;28;1487;-73
2022/01/19 11:31:44;;;;;;;;;;;19.70;45.10;;;;;;5035629;28;1369;-73
2022/01/19 11:34:09;;;;;;;;;;;19.70;45.30;;;;;;5033038;28;1248;-73
2022/01/19 11:36:36;;;;;;;;;;;19.70;45.60;;;;;;5032649;28;1166;-73
2022/01/19 11:39:20;;;;;;;;;;;19.70;45.80;;;;;;4997905;28;1378;-73
2022/01/19 11:41:50;;;;;;;;;;;19.70;46.00;;;;;;5014603;28;1781;-73
2022/01/19 11:44:16;;;;;;;;;;;19.70;46.20;;;;;;5014425;28;1380;-73
2022/01/19 11:46:43;;;;;;;;;;;19.70;46.30;;;;;;5014124;28;1973;-73
2022/01/19 11:49:09;;;;;;;;;;;19.70;46.50;;;;;;5015203;28;1432;-73
2022/01/19 11:51:38;;;;;;;;;;;19.70;46.80;;;;;;5015487;28;1715;-73
2022/01/19 11:54:04;;;;;;;;;;;19.70;46.90;;;;;;5014025;28;1288;-73
2022/01/19 11:56:29;;;;;;;;;;;19.70;47.00;;;;;;5015693;28;1440;-73
2022/01/19 11:59:06;;;;;;;;;;;19.70;47.20;;;;;;5015208;28;1684;-74
2022/01/19 12:01:31;;;;;;;;;;;19.70;47.30;;;;;;5004536;28;1259;-73
2022/01/19 12:04:11;;;;;;;;;;;19.70;47.40;;;;;;5017074;28;1305;-72
2022/01/19 12:06:37;;;;;;;;;;;19.70;47.50;;;;;;5013856;28;1918;-73
2022/01/19 12:09:03;;;;;;;;;;;19.70;47.60;;;;;;5013598;28;1589;-73
2022/01/19 12:11:29;;;;;;;;;;;19.70;47.70;;;;;;5015034;28;1118;-72
2022/01/19 12:14:19;;;;;;;;;;;19.80;48.00;;;;;;5016802;28;1240;-72
2022/01/19 12:16:56;;;;;;;;;;;19.80;48.20;;;;;;5034947;28;858;-72
2022/01/19 12:19:23;;;;;;;;;;;19.90;48.30;;;;;;5013389;28;1587;-71
2022/01/19 12:21:54;;;;;;;;;;;20.00;48.40;;;;;;5014842;28;1408;-72
2022/01/19 12:24:24;;;;;;;;;;;20.00;48.30;;;;;;5020867;28;1255;-72
2022/01/19 12:26:54;;;;;;;;;;;20.20;48.30;;;;;;5018613;28;1890;-73
2022/01/19 12:29:38;;;;;;;;;;;20.30;48.20;;;;;;5032246;28;1466;-73
2022/01/19 12:32:06;;;;;;;;;;;20.40;48.10;;;;;;5033265;28;1487;-72
2022/01/19 12:34:48;;;;;;;;;;;20.50;48.00;;;;;;5030718;28;1686;-71
2022/01/19 12:37:14;;;;;;;;;;;20.60;48.40;;;;;;5026478;28;1922;-71
2022/01/19 12:39:40;;;;;;;;;;;20.70;47.80;;;;;;5031808;28;1780;-71
2022/01/19 12:42:14;;;;;;;;;;;20.80;47.70;;;;;;5031804;28;1857;-71
2022/01/19 12:44:46;;;;;;;;;;;20.80;47.50;;;;;;5032117;28;1474;-71
2022/01/19 12:47:29;;;;;;;;;;;20.90;47.50;;;;;;5033242;28;1968;-71
2022/01/19 12:49:55;;;;;;;;;;;21.00;47.40;;;;;;5033868;28;1479;-70
2022/01/19 12:52:22;;;;;;;;;;;21.00;47.40;;;;;;5032912;28;2192;-71
2022/01/19 12:54:47;;;;;;;;;;;21.10;47.40;;;;;;5032420;28;1700;-71
2022/01/19 12:57:15;;;;;;;;;;;21.10;47.40;;;;;;5032931;28;1375;-71
2022/01/19 12:59:41;;;;;;;;;;;21.10;47.40;;;;;;5032265;28;1400;-70
2022/01/19 13:02:07;;;;;;;;;;;21.10;47.50;;;;;;5032931;28;1701;-71
2022/01/19 13:04:33;;;;;;;;;;;21.10;47.50;;;;;;5033570;28;1541;-72
2022/01/19 13:07:13;;;;;;;;;;;21.20;47.60;;;;;;5033736;28;1953;-73
2022/01/19 13:09:58;;;;;;;;;;;21.10;47.70;;;;;;5033589;28;1514;-73
2022/01/19 13:12:31;;;;;;;;;;;21.20;47.70;;;;;;5033677;28;1718;-73
2022/01/19 13:14:56;;;;;;;;;;;21.20;47.70;;;;;;5032234;28;1437;-72
2022/01/19 13:17:22;;;;;;;;;;;21.10;47.60;;;;;;5021873;28;1338;-74
2022/01/19 13:19:47;;;;;;;;;;;21.10;47.60;;;;;;5026407;28;1617;-73
2022/01/19 13:22:12;;;;;;;;;;;21.10;47.70;;;;;;5032296;28;1246;-71
2022/01/19 13:24:38;;;;;;;;;;;21.10;47.70;;;;;;5033245;28;1707;-72
2022/01/19 13:27:04;;;;;;;;;;;21.10;47.80;;;;;;5033239;28;1944;-72
2022/01/19 13:29:31;;;;;;;;;;;21.10;47.90;;;;;;5026493;28;1312;-75
2022/01/19 13:32:16;;;;;;;;;;;21.10;48.00;;;;;;5020876;28;1773;-74
2022/01/19 13:34:56;;;;;;;;;;;21.10;48.10;;;;;;5027809;28;1417;-70
2022/01/19 13:37:23;;;;;;;;;;;21.00;48.10;;;;;;5024553;28;1321;-70
2022/01/19 13:39:59;;;;;;;;;;;21.00;48.30;;;;;;5019833;28;1356;-72
2022/01/19 13:42:31;;;;;;;;;;;21.00;48.30;;;;;;5022432;28;1552;-72
2022/01/19 13:44:58;;;;;;;;;;;21.00;48.40;;;;;;5022226;28;1425;-70
2022/01/19 13:47:30;;;;;;;;;;;20.90;48.50;;;;;;5021469;28;1902;-71
2022/01/19 13:49:55;;;;;;;;;;;20.90;48.50;;;;;;5023930;28;1304;-71
2022/01/19 13:52:22;;;;;;;;;;;20.90;48.60;;;;;;5004846;28;1514;-71
2022/01/19 13:54:47;;;;;;;;;;;20.90;49.30;;;;;;5026606;28;1420;-70
2022/01/19 13:57:12;;;;;;;;;;;20.90;48.80;;;;;;5019487;28;1641;-70
2022/01/19 13:59:38;;;;;;;;;;;20.80;48.80;;;;;;5011715;28;1444;-70
2022/01/19 14:02:12;;;;;;;;;;;20.80;48.90;;;;;;5013208;28;1363;-69
2022/01/19 14:04:38;;;;;;;;;;;20.80;49.00;;;;;;5025885;28;2106;-71
2022/01/19 14:07:05;;;;;;;;;;;20.80;49.00;;;;;;5022336;28;2080;-72
2022/01/19 14:09:39;;;;;;;;;;;20.80;49.30;;;;;;5031273;28;1712;-71
2022/01/19 14:12:06;;;;;;;;;;;20.70;49.10;;;;;;5025817;28;1894;-71
2022/01/19 14:14:36;;;;;;;;;;;20.70;49.10;;;;;;5032547;28;1649;-72
2022/01/19 14:17:09;;;;;;;;;;;20.70;49.20;;;;;;5031410;28;1728;-71
2022/01/19 14:19:44;;;;;;;;;;;20.70;49.30;;;;;;5032656;28;1697;-72
2022/01/19 14:22:10;;;;;;;;;;;20.70;49.40;;;;;;5031649;28;1429;-71
2022/01/19 14:24:42;;;;;;;;;;;20.70;49.40;;;;;;5032454;28;1503;-71
2022/01/19 14:27:11;;;;;;;;;;;20.60;49.40;;;;;;5031058;28;1906;-71
2022/01/19 14:29:52;;;;;;;;;;;20.60;49.50;;;;;;5027644;28;1343;-72
2022/01/19 14:32:17;;;;;;;;;;;20.60;49.50;;;;;;5031853;28;1471;-72
2022/01/19 14:34:43;;;;;;;;;;;20.60;49.60;;;;;;5014692;28;1614;-70
2022/01/19 14:37:12;;;;;;;;;;;20.60;49.60;;;;;;5032572;28;1403;-71
2022/01/19 14:39:51;;;;;;;;;;;20.60;49.60;;;;;;5013507;28;1414;-71
2022/01/19 14:42:18;;;;;;;;;;;20.60;49.70;;;;;;5018375;28;1649;-71
2022/01/19 14:44:57;;;;;;;;;;;20.60;49.70;;;;;;5031261;28;1646;-72
2022/01/19 14:47:36;;;;;;;;;;;20.60;49.80;;;;;;5031370;28;1969;-71
2022/01/19 14:50:38;;;;;;;;;;;20.60;49.80;;;;;;5031059;28;1183;-70
2022/01/19 14:53:03;;;;;;;;;;;20.60;49.90;;;;;;4990459;28;1753;-72
2022/01/19 14:55:30;;;;;;;;;;;20.60;49.90;;;;;;5022572;28;1366;-71
2022/01/19 14:57:56;;;;;;;;;;;20.60;50.00;;;;;;5031177;28;1696;-71
2022/01/19 15:00:22;;;;;;;;;;;20.50;50.00;;;;;;5030981;28;1681;-71
2022/01/19 15:02:51;;;;;;;;;;;20.50;50.00;;;;;;5032442;28;1372;-71
2022/01/19 15:05:18;;;;;;;;;;;20.50;50.00;;;;;;5032161;28;1386;-71
2022/01/19 15:07:44;;;;;;;;;;;20.50;50.10;;;;;;5032506;28;1715;-71
2022/01/19 15:10:10;;;;;;;;;;;20.50;50.10;;;;;;5034630;28;1343;-71
2022/01/19 15:12:37;;;;;;;;;;;20.50;50.10;;;;;;5034815;28;1673;-70
2022/01/19 15:15:04;;;;;;;;;;;20.50;50.10;;;;;;5035758;28;1678;-71
2022/01/19 15:17:29;;;;;;;;;;;20.50;50.20;;;;;;5031806;28;1549;-70
2022/01/19 15:19:56;;;;;;;;;;;20.50;50.20;;;;;;5015900;28;1341;-71
2022/01/19 15:22:22;;;;;;;;;;;20.50;50.30;;;;;;5016073;28;1277;-71
2022/01/19 15:24:48;;;;;;;;;;;20.50;50.30;;;;;;5015865;28;1314;-72
2022/01/19 15:27:14;;;;;;;;;;;20.40;50.30;;;;;;5017892;28;1898;-70
2022/01/19 15:29:39;;;;;;;;;;;20.40;50.30;;;;;;5035300;28;1432;-71
2022/01/19 15:32:05;;;;;;;;;;;20.40;50.40;;;;;;5035961;28;1400;-71
2022/01/19 15:34:30;;;;;;;;;;;20.40;50.40;;;;;;5035519;28;1577;-70
2022/01/19 15:36:55;;;;;;;;;;;20.40;50.50;;;;;;5035082;28;1673;-71
2022/01/19 15:39:21;;;;;;;;;;;20.40;50.50;;;;;;5025941;28;2428;-70
2022/01/19 15:41:46;;;;;;;;;;;20.40;50.50;;;;;;5035034;28;1208;-71
2022/01/19 15:44:12;;;;;;;;;;;20.40;50.60;;;;;;5034110;28;1423;-71
2022/01/19 15:46:37;;;;;;;;;;;20.40;50.60;;;;;;5035216;28;1906;-70
2022/01/19 15:49:03;;;;;;;;;;;20.40;50.70;;;;;;5033789;28;1293;-71
2022/01/19 15:51:29;;;;;;;;;;;20.40;50.70;;;;;;5035172;28;1436;-71
2022/01/19 15:53:54;;;;;;;;;;;20.30;50.70;;;;;;5035119;28;1356;-71
2022/01/19 15:56:21;;;;;;;;;;;20.30;50.70;;;;;;5053330;22;3939;-71
2022/01/19 15:58:47;;;;;;;;;;;20.30;50.80;;;;;;5047844;28;1638;-70